Time;durP1;ratioP1;P1;durP2;ratioP2;P2;SDS_P1;SDS_P2;PMS_P1;PMS_P2;Temp;Humidity;BMP_temperature;BMP_pressure;BME280_temperature;BME280_humidity;BME280_pressure;Samples;Min_cycle;Max_cycle;Signal;HPM_P1;HPM_P2
2022/01/18 00:01:18;;;;;;;1.20;0.80;;;22.80;31.20;;;;;;5075919;28;20386;-64
2022/01/18 00:03:44;;;;;;;1.00;0.70;;;22.70;31.20;;;;;;5097896;28;20422;-65
2022/01/18 00:06:10;;;;;;;1.10;0.77;;;22.70;31.30;;;;;;5092969;28;20401;-63
2022/01/18 00:08:37;;;;;;;2.40;0.70;;;22.70;31.30;;;;;;5094288;28;20874;-63
2022/01/18 00:11:03;;;;;;;1.10;0.60;;;22.70;31.30;;;;;;5092902;28;20497;-64
2022/01/18 00:13:47;;;;;;;1.73;0.70;;;22.70;31.40;;;;;;5093204;28;20465;-64
2022/01/18 00:19:06;;;;;;;1.50;0.60;;;22.60;31.40;;;;;;5092025;28;20377;-64
2022/01/18 00:22:07;;;;;;;0.90;0.60;;;22.50;31.40;;;;;;5091630;28;20736;-64
2022/01/18 00:24:17;;;;;;;1.30;0.70;;;22.50;31.40;;;;;;5093654;28;20398;-64
2022/01/18 00:26:43;;;;;;;0.90;0.60;;;22.50;31.50;;;;;;5094274;28;20753;-64
2022/01/18 00:29:13;;;;;;;1.07;0.70;;;22.50;31.50;;;;;;5094016;28;20421;-64
2022/01/18 00:36:41;;;;;;;1.10;0.70;;;22.40;31.60;;;;;;5094015;28;20389;-64
2022/01/18 00:39:10;;;;;;;1.70;0.70;;;22.40;31.60;;;;;;5093978;28;20381;-65
2022/01/18 00:41:38;;;;;;;1.05;0.60;;;22.40;31.60;;;;;;5093927;28;20461;-64
2022/01/18 00:44:04;;;;;;;1.05;0.73;;;22.40;31.70;;;;;;5093774;28;20434;-64
2022/01/18 00:46:31;;;;;;;1.60;0.80;;;22.40;31.70;;;;;;5093739;28;20386;-64
2022/01/18 00:49:00;;;;;;;1.37;0.70;;;22.30;31.70;;;;;;5093522;28;20422;-64
2022/01/18 00:51:26;;;;;;;0.98;0.70;;;22.30;31.70;;;;;;5093772;28;20386;-64
2022/01/18 00:53:52;;;;;;;1.02;0.70;;;22.30;31.70;;;;;;5093332;28;20386;-64
2022/01/18 00:56:22;;;;;;;0.88;0.70;;;22.20;31.80;;;;;;5075528;28;20411;-67
2022/01/18 00:58:50;;;;;;;1.40;0.70;;;22.20;31.90;;;;;;5093840;28;20909;-65
2022/01/18 01:01:17;;;;;;;1.30;0.60;;;22.20;31.80;;;;;;5093663;28;20400;-64
2022/01/18 01:03:43;;;;;;;0.88;0.60;;;22.20;31.90;;;;;;5093532;28;20891;-64
2022/01/18 01:06:10;;;;;;;0.68;0.50;;;22.10;31.90;;;;;;5109501;28;20424;-64
2022/01/18 01:08:36;;;;;;;1.10;0.70;;;22.10;31.90;;;;;;5091798;28;20382;-64
2022/01/18 01:11:05;;;;;;;0.93;0.63;;;22.10;32.00;;;;;;5092992;28;20725;-64
2022/01/18 01:13:32;;;;;;;1.00;0.70;;;22.10;32.00;;;;;;5075121;28;20884;-64
2022/01/18 01:43:20;;;;;;;1.00;0.70;;;21.80;32.30;;;;;;5092970;28;20473;-64
2022/01/18 01:45:46;;;;;;;1.40;0.70;;;21.80;32.30;;;;;;5092945;28;20465;-64
2022/01/18 01:48:12;;;;;;;0.80;0.70;;;21.80;32.30;;;;;;5092594;28;20410;-63
2022/01/18 01:50:55;;;;;;;0.90;0.67;;;21.80;32.40;;;;;;5092689;28;20425;-65
2022/01/18 01:53:23;;;;;;;0.68;0.50;;;21.70;32.40;;;;;;5092326;28;20419;-65
2022/01/18 01:55:50;;;;;;;1.02;0.60;;;21.70;32.40;;;;;;5092675;28;20382;-64
2022/01/18 01:58:18;;;;;;;0.80;0.50;;;21.70;32.40;;;;;;5074524;28;20492;-65
2022/01/18 02:00:48;;;;;;;1.02;0.60;;;21.70;32.40;;;;;;5074417;28;20994;-65
2022/01/18 02:03:14;;;;;;;0.93;0.68;;;21.70;32.50;;;;;;5092559;28;20418;-68
2022/01/18 02:05:40;;;;;;;0.90;0.60;;;21.60;32.50;;;;;;5092436;28;20408;-65
2022/01/18 02:08:08;;;;;;;1.30;0.65;;;21.60;32.50;;;;;;5092269;28;20398;-64
2022/01/18 02:10:35;;;;;;;1.10;0.65;;;21.60;32.60;;;;;;5092306;28;20374;-64
2022/01/18 02:13:01;;;;;;;1.30;0.67;;;21.60;32.50;;;;;;5092463;28;20514;-64
2022/01/18 02:15:27;;;;;;;1.00;0.50;;;21.60;32.60;;;;;;5092316;28;20453;-73
2022/01/18 02:23:25;;;;;;;1.00;0.70;;;21.50;32.70;;;;;;5091798;28;20413;-64
2022/01/18 02:25:51;;;;;;;0.77;0.60;;;21.50;32.80;;;;;;5091461;28;20826;-64
2022/01/18 02:28:19;;;;;;;1.05;0.60;;;21.50;32.70;;;;;;5092213;28;20390;-64
2022/01/18 02:30:45;;;;;;;0.80;0.60;;;21.50;32.80;;;;;;5092033;28;20882;-65
2022/01/18 02:33:12;;;;;;;1.15;0.70;;;21.40;32.70;;;;;;5092123;28;20863;-64
2022/01/18 02:35:38;;;;;;;1.17;0.70;;;21.40;32.70;;;;;;5092080;28;20414;-64
2022/01/18 02:38:04;;;;;;;0.88;0.65;;;21.40;32.80;;;;;;5107205;28;20451;-66
2022/01/18 02:40:31;;;;;;;1.08;0.63;;;21.40;32.80;;;;;;5091679;28;20465;-66
2022/01/18 02:43:01;;;;;;;0.90;0.57;;;21.30;32.80;;;;;;5091985;28;20446;-64
2022/01/18 02:45:27;;;;;;;1.05;0.68;;;21.30;32.80;;;;;;5091957;28;20782;-64
2022/01/18 02:47:54;;;;;;;0.98;0.63;;;21.30;32.90;;;;;;5091743;28;20842;-65
2022/01/18 02:50:23;;;;;;;1.25;0.80;;;21.30;32.90;;;;;;5091871;28;20435;-64
2022/01/18 02:52:49;;;;;;;1.00;0.60;;;21.30;32.80;;;;;;5091739;28;20390;-65
2022/01/18 02:55:15;;;;;;;1.27;0.70;;;21.20;32.80;;;;;;5091830;28;20913;-65
2022/01/18 02:57:55;;;;;;;1.17;0.60;;;21.20;32.80;;;;;;5091796;28;20398;-65
2022/01/18 03:00:31;;;;;;;1.00;0.60;;;21.20;32.90;;;;;;5091733;28;20382;-65
2022/01/18 03:03:12;;;;;;;0.93;0.57;;;21.20;32.90;;;;;;5091770;28;20417;-65
2022/01/18 03:05:40;;;;;;;0.90;0.60;;;21.20;32.90;;;;;;5091760;28;20759;-64
2022/01/18 03:08:05;;;;;;;0.90;0.60;;;21.20;33.00;;;;;;5091330;28;20404;-64
2022/01/18 03:10:31;;;;;;;0.80;0.60;;;21.10;32.90;;;;;;5091337;28;20382;-65
2022/01/18 03:12:57;;;;;;;1.00;0.60;;;21.20;33.00;;;;;;5091766;28;20427;-65
2022/01/18 03:15:22;;;;;;;0.70;0.60;;;21.20;33.10;;;;;;5091693;28;20739;-64
2022/01/18 03:17:48;;;;;;;0.90;0.70;;;21.10;33.60;;;;;;5091739;28;20390;-64
2022/01/18 03:20:16;;;;;;;0.98;0.60;;;21.10;33.00;;;;;;5091722;28;20378;-64
2022/01/18 03:22:42;;;;;;;1.10;0.68;;;21.10;33.00;;;;;;5091539;28;20452;-64
2022/01/18 03:25:26;;;;;;;0.88;0.60;;;21.10;33.10;;;;;;5091705;28;20381;-64
2022/01/18 03:28:06;;;;;;;0.85;0.60;;;21.00;33.00;;;;;;5091649;28;20472;-64
2022/01/18 03:30:36;;;;;;;0.73;0.60;;;21.00;33.10;;;;;;5091610;28;20405;-64
2022/01/18 03:33:05;;;;;;;1.40;0.60;;;21.00;33.10;;;;;;5095451;28;20377;-63
2022/01/18 03:35:31;;;;;;;1.65;0.60;;;21.00;33.10;;;;;;5095386;28;20392;-64
2022/01/18 03:37:57;;;;;;;0.75;0.60;;;21.00;33.10;;;;;;5095267;28;20386;-64
2022/01/18 03:40:24;;;;;;;1.40;0.60;;;21.00;33.70;;;;;;5094668;28;20405;-64
2022/01/18 03:42:51;;;;;;;0.95;0.70;;;21.00;33.20;;;;;;5094801;28;20416;-64
2022/01/18 03:45:30;;;;;;;0.93;0.63;;;21.00;33.20;;;;;;5095136;28;20424;-65
2022/01/18 03:47:59;;;;;;;1.20;0.60;;;20.90;33.10;;;;;;5094994;28;20409;-64
2022/01/18 03:50:26;;;;;;;0.80;0.55;;;21.00;33.10;;;;;;5094988;28;20422;-64
2022/01/18 03:52:52;;;;;;;0.88;0.60;;;21.10;33.10;;;;;;5094882;28;20443;-64
2022/01/18 03:55:19;;;;;;;1.00;0.60;;;21.20;32.90;;;;;;5094230;28;20378;-64
2022/01/18 03:57:45;;;;;;;1.88;0.80;;;21.20;32.80;;;;;;5094943;28;20477;-64
2022/01/18 04:00:15;;;;;;;0.90;0.60;;;21.30;32.70;;;;;;5094955;28;20481;-65
2022/01/18 04:02:41;;;;;;;1.15;0.80;;;21.30;32.60;;;;;;5094599;28;20446;-65
2022/01/18 04:05:07;;;;;;;1.23;0.60;;;21.40;32.50;;;;;;5094669;28;20406;-64
2022/01/18 04:07:33;;;;;;;2.22;0.77;;;21.40;32.60;;;;;;5094594;28;20390;-65
2022/01/18 04:09:59;;;;;;;2.05;0.65;;;21.50;33.30;;;;;;5094625;28;20477;-63
2022/01/18 04:12:25;;;;;;;2.50;0.87;;;21.50;33.60;;;;;;5094416;28;20378;-63
2022/01/18 04:14:50;;;;;;;2.67;1.00;;;21.60;34.40;;;;;;5094616;28;20381;-63
2022/01/18 04:27:45;;;;;;;2.75;0.80;;;21.70;36.20;;;;;;5094340;28;20782;-65
2022/01/18 04:30:11;;;;;;;4.15;0.95;;;21.70;35.70;;;;;;5094161;28;20418;-64
2022/01/18 04:32:36;;;;;;;4.72;0.90;;;21.80;36.40;;;;;;5094130;28;20764;-64
2022/01/18 04:35:02;;;;;;;1.20;0.80;;;21.80;36.30;;;;;;5094158;28;20389;-64
2022/01/18 04:37:30;;;;;;;2.67;0.77;;;21.80;35.80;;;;;;5075941;28;20386;-64
2022/01/18 04:39:57;;;;;;;2.75;0.88;;;21.90;36.60;;;;;;5093969;28;20394;-64
2022/01/18 04:50:43;;;;;;;3.90;0.80;;;22.00;36.20;;;;;;5093678;28;20477;-65
2022/01/18 04:53:09;;;;;;;1.33;0.80;;;22.00;36.20;;;;;;5093056;28;20473;-64
2022/01/18 04:55:35;;;;;;;3.10;0.90;;;22.00;35.60;;;;;;5092896;28;20378;-65
2022/01/18 04:58:01;;;;;;;3.75;0.98;;;22.10;35.30;;;;;;5093256;28;20894;-65
2022/01/18 05:00:27;;;;;;;3.20;0.90;;;22.00;35.30;;;;;;5093430;28;20379;-65
2022/01/18 05:02:53;;;;;;;2.05;0.88;;;22.00;34.90;;;;;;5093519;28;20912;-65
2022/01/18 05:05:33;;;;;;;2.80;0.80;;;22.00;34.60;;;;;;5093386;28;20374;-65
2022/01/18 05:08:01;;;;;;;4.18;0.80;;;22.00;34.30;;;;;;5093234;28;20382;-64
2022/01/18 05:10:29;;;;;;;2.30;0.80;;;21.90;34.20;;;;;;5093300;28;20382;-64
2022/01/18 05:12:56;;;;;;;3.22;0.90;;;21.90;34.00;;;;;;5093553;28;20420;-64
2022/01/18 05:15:39;;;;;;;3.60;0.90;;;21.90;34.00;;;;;;5093410;28;20467;-64
2022/01/18 05:18:58;;;;;;;1.30;0.80;;;21.90;33.90;;;;;;5093352;28;20375;-64
2022/01/18 05:23:22;;;;;;;3.70;0.90;;;21.90;34.10;;;;;;5092004;28;20532;-65
2022/01/18 05:25:47;;;;;;;3.37;0.90;;;21.90;33.70;;;;;;5093402;28;20459;-65
2022/01/18 05:28:14;;;;;;;3.17;1.00;;;21.90;33.80;;;;;;5093243;28;20390;-64
2022/01/18 05:30:40;;;;;;;5.13;1.10;;;21.90;33.70;;;;;;5093582;28;20885;-67
2022/01/18 05:33:06;;;;;;;2.60;0.97;;;21.90;34.20;;;;;;5110093;28;20430;-64
2022/01/18 05:35:33;;;;;;;4.15;1.10;;;21.90;33.80;;;;;;5079005;28;20426;-64
2022/01/18 05:37:59;;;;;;;5.10;1.40;;;21.90;33.90;;;;;;5104847;28;20390;-64
2022/01/18 05:40:25;;;;;;;4.57;1.43;;;21.90;34.20;;;;;;5104515;28;20384;-65
2022/01/18 05:42:51;;;;;;;4.47;1.50;;;21.90;34.10;;;;;;5113180;28;20601;-65
2022/01/18 05:45:17;;;;;;;3.47;1.60;;;22.00;34.10;;;;;;5097790;28;20386;-67
2022/01/18 05:47:43;;;;;;;6.45;1.40;;;22.00;34.50;;;;;;5091252;28;20408;-64
2022/01/18 05:50:11;;;;;;;4.88;1.80;;;22.00;34.30;;;;;;5091553;28;20914;-64
2022/01/18 05:52:37;;;;;;;3.92;1.70;;;22.00;34.70;;;;;;5074094;28;20398;-64
2022/01/18 05:55:04;;;;;;;4.95;1.83;;;22.00;35.50;;;;;;5091392;28;20385;-71
2022/01/18 05:57:29;;;;;;;3.20;1.90;;;22.00;35.40;;;;;;5091852;28;20470;-73
2022/01/18 06:00:02;;;;;;;7.77;2.30;;;22.10;35.10;;;;;;5091731;28;20473;-66
2022/01/18 06:02:41;;;;;;;5.25;2.00;;;22.10;35.10;;;;;;5091850;28;20408;-64
2022/01/18 06:07:53;;;;;;;5.17;2.17;;;22.10;34.70;;;;;;5088513;28;20406;-66
2022/01/18 06:10:19;;;;;;;5.38;2.20;;;22.10;35.10;;;;;;5090238;28;20875;-64
2022/01/18 06:12:45;;;;;;;5.30;2.30;;;22.10;35.00;;;;;;5090027;28;20415;-63
2022/01/18 06:15:11;;;;;;;6.30;2.20;;;22.10;35.10;;;;;;5090776;28;20875;-63
2022/01/18 06:17:38;;;;;;;6.35;2.30;;;22.10;35.20;;;;;;5090880;28;20875;-63
2022/01/18 06:20:05;;;;;;;4.77;2.13;;;22.10;35.30;;;;;;5090991;28;20875;-63
2022/01/18 06:22:31;;;;;;;4.10;2.20;;;22.10;35.20;;;;;;5088242;28;20455;-63
2022/01/18 06:24:57;;;;;;;3.23;2.07;;;22.10;35.00;;;;;;5090940;28;20398;-63
2022/01/18 06:27:24;;;;;;;4.20;2.20;;;22.10;35.10;;;;;;5091043;28;20481;-63
2022/01/18 06:29:50;;;;;;;4.55;2.38;;;22.10;35.00;;;;;;5090441;28;20394;-64
2022/01/18 06:32:15;;;;;;;5.70;2.30;;;22.10;34.80;;;;;;5091969;28;20385;-63
2022/01/18 06:34:41;;;;;;;2.93;2.07;;;22.10;34.30;;;;;;5090306;28;20404;-63
2022/01/18 06:37:07;;;;;;;3.63;1.95;;;22.10;34.60;;;;;;5091906;28;20860;-65
2022/01/18 06:39:33;;;;;;;4.90;2.13;;;22.10;34.50;;;;;;5088493;28;20393;-72
2022/01/18 06:41:59;;;;;;;3.13;2.00;;;22.00;34.30;;;;;;5091660;28;20398;-73
2022/01/18 06:44:25;;;;;;;3.77;1.93;;;22.10;33.90;;;;;;5091592;28;20402;-73
2022/01/18 06:46:53;;;;;;;3.60;1.88;;;22.00;33.80;;;;;;5090613;28;20394;-73
2022/01/18 06:49:18;;;;;;;3.63;2.10;;;22.00;33.70;;;;;;5091624;28;20567;-73
2022/01/18 06:51:44;;;;;;;2.35;1.85;;;22.00;33.50;;;;;;5091772;28;20846;-73
2022/01/18 06:54:14;;;;;;;2.53;1.80;;;22.00;33.40;;;;;;5091644;28;20397;-72
2022/01/18 06:56:44;;;;;;;2.85;1.77;;;22.00;33.30;;;;;;5091996;28;20374;-73
2022/01/18 06:59:10;;;;;;;2.85;2.00;;;22.00;33.30;;;;;;5091835;28;20378;-70
2022/01/18 07:01:36;;;;;;;2.25;1.80;;;22.00;33.30;;;;;;5091679;28;20369;-74
2022/01/18 07:04:01;;;;;;;2.87;1.77;;;21.90;33.20;;;;;;5091681;28;20913;-74
2022/01/18 07:06:27;;;;;;;2.42;1.67;;;21.90;33.20;;;;;;5094608;28;20411;-73
2022/01/18 07:08:53;;;;;;;2.63;1.77;;;21.80;33.20;;;;;;5094583;28;20394;-74
2022/01/18 07:11:20;;;;;;;2.45;1.85;;;21.80;33.20;;;;;;5095682;28;20388;-74
2022/01/18 07:13:45;;;;;;;4.03;2.20;;;21.80;33.20;;;;;;5095714;28;20390;-74
2022/01/18 07:16:11;;;;;;;2.58;1.70;;;21.80;33.10;;;;;;5095670;28;20455;-74
2022/01/18 07:18:37;;;;;;;3.23;1.90;;;21.80;33.10;;;;;;5095494;28;20394;-74
2022/01/18 07:21:03;;;;;;;2.38;1.88;;;21.80;33.00;;;;;;5095493;28;20382;-74
2022/01/18 07:23:29;;;;;;;2.60;1.83;;;21.80;33.00;;;;;;5095401;28;20414;-74
2022/01/18 07:25:55;;;;;;;2.45;1.65;;;21.80;33.00;;;;;;5095294;28;20402;-75
2022/01/18 07:28:21;;;;;;;4.10;1.70;;;21.80;33.00;;;;;;5094284;28;20386;-74
2022/01/18 07:30:48;;;;;;;3.60;1.80;;;21.80;32.90;;;;;;5094954;28;20389;-71
2022/01/18 07:33:15;;;;;;;2.30;1.57;;;21.80;33.00;;;;;;5094939;28;20390;-67
2022/01/18 07:35:42;;;;;;;3.07;2.00;;;21.80;33.10;;;;;;5076004;28;20390;-74
2022/01/18 07:38:12;;;;;;;2.57;1.90;;;21.90;33.60;;;;;;5093981;28;20918;-74
2022/01/18 07:40:39;;;;;;;2.30;1.93;;;21.90;33.50;;;;;;5092118;28;20390;-73
2022/01/18 07:43:05;;;;;;;2.95;1.90;;;22.00;33.60;;;;;;5094996;28;20409;-73
2022/01/18 07:45:31;;;;;;;2.90;1.90;;;22.00;33.90;;;;;;5095040;28;20390;-74
2022/01/18 07:47:57;;;;;;;2.85;2.05;;;22.00;33.30;;;;;;5094936;28;20421;-72
2022/01/18 07:50:24;;;;;;;2.92;2.45;;;22.00;34.00;;;;;;5094950;28;20751;-73
2022/01/18 07:52:49;;;;;;;2.70;1.90;;;22.00;34.10;;;;;;5094978;28;20456;-74
2022/01/18 07:55:15;;;;;;;3.67;2.00;;;22.00;33.80;;;;;;5094812;28;20386;-69
2022/01/18 07:57:42;;;;;;;3.27;2.03;;;22.00;33.80;;;;;;5094830;28;20697;-74
2022/01/18 08:00:18;;;;;;;2.30;1.90;;;22.00;33.70;;;;;;5094606;28;20389;-74
2022/01/18 08:02:44;;;;;;;2.00;1.70;;;22.00;33.70;;;;;;5094646;28;20818;-73
2022/01/18 08:05:11;;;;;;;2.80;1.80;;;22.00;33.70;;;;;;5094690;28;20874;-73
2022/01/18 08:07:37;;;;;;;2.70;1.90;;;22.00;33.50;;;;;;5094643;28;20871;-73
2022/01/18 08:10:04;;;;;;;2.10;1.75;;;22.00;33.40;;;;;;5094580;28;20382;-72
2022/01/18 08:12:30;;;;;;;2.57;1.93;;;22.00;33.40;;;;;;5094344;28;20867;-73
2022/01/18 08:15:02;;;;;;;2.53;1.80;;;22.00;33.30;;;;;;5094581;28;20384;-72
2022/01/18 08:17:28;;;;;;;2.03;1.60;;;22.00;33.20;;;;;;5093717;28;20871;-73
2022/01/18 08:19:54;;;;;;;3.20;1.70;;;22.00;33.30;;;;;;5094994;28;20386;-73
2022/01/18 08:22:19;;;;;;;2.47;1.80;;;22.00;33.20;;;;;;5094169;28;20401;-72
2022/01/18 08:24:45;;;;;;;2.30;1.63;;;21.90;33.30;;;;;;5094380;28;20390;-73
2022/01/18 08:27:11;;;;;;;2.45;1.75;;;21.90;33.30;;;;;;5094533;28;20423;-73
2022/01/18 08:29:37;;;;;;;2.58;1.80;;;21.90;33.30;;;;;;5094477;28;20875;-74
2022/01/18 08:32:06;;;;;;;2.60;1.70;;;21.90;33.20;;;;;;5094202;28;20924;-71
2022/01/18 08:34:33;;;;;;;2.03;1.40;;;21.90;33.00;;;;;;5075954;28;20972;-66
2022/01/18 08:36:59;;;;;;;2.22;1.58;;;21.90;33.00;;;;;;5094053;28;20465;-72
2022/01/18 08:39:25;;;;;;;3.72;1.80;;;21.90;33.00;;;;;;5094046;28;20532;-65
2022/01/18 08:41:50;;;;;;;1.87;1.50;;;21.90;32.90;;;;;;5093897;28;20785;-74
2022/01/18 08:44:16;;;;;;;2.55;1.55;;;21.90;32.90;;;;;;5093539;28;20413;-71
2022/01/18 08:46:42;;;;;;;2.33;1.60;;;21.90;32.90;;;;;;5093959;28;20385;-73
2022/01/18 08:49:08;;;;;;;2.10;1.50;;;21.90;32.90;;;;;;5093814;28;20431;-65
2022/01/18 08:51:34;;;;;;;1.90;1.45;;;21.90;32.90;;;;;;5093898;28;20406;-73
2022/01/18 08:54:02;;;;;;;1.90;1.50;;;21.80;32.90;;;;;;5093387;28;20398;-72
2022/01/18 08:56:27;;;;;;;1.83;1.40;;;21.80;32.90;;;;;;5092839;28;20461;-72
2022/01/18 08:58:53;;;;;;;2.00;1.60;;;21.80;32.90;;;;;;5093652;28;20389;-72
2022/01/18 09:01:19;;;;;;;2.20;1.63;;;21.80;32.80;;;;;;5087069;28;20400;-73
2022/01/18 09:03:45;;;;;;;2.15;1.50;;;21.80;32.90;;;;;;5081409;28;20417;-73
2022/01/18 09:06:16;;;;;;;1.92;1.40;;;21.80;32.80;;;;;;5092635;28;20386;-72
2022/01/18 09:08:42;;;;;;;2.17;1.50;;;21.80;32.80;;;;;;5093239;28;20382;-73
2022/01/18 09:11:11;;;;;;;2.78;1.58;;;21.80;32.80;;;;;;5093075;28;20386;-70
2022/01/18 09:13:37;;;;;;;2.38;1.50;;;21.80;32.80;;;;;;5091344;28;20389;-62
2022/01/18 09:16:06;;;;;;;1.98;1.48;;;21.80;32.80;;;;;;5092724;28;20390;-63
2022/01/18 09:18:32;;;;;;;2.03;1.60;;;21.80;32.80;;;;;;5072117;28;20477;-68
2022/01/18 09:20:58;;;;;;;1.98;1.40;;;21.70;33.00;;;;;;5093140;28;20412;-68
2022/01/18 09:23:24;;;;;;;3.70;1.80;;;21.80;33.30;;;;;;5073765;28;20994;-63
2022/01/18 09:25:51;;;;;;;2.10;1.40;;;21.80;34.30;;;;;;5087389;28;20397;-63
2022/01/18 09:28:17;;;;;;;2.60;1.50;;;21.90;33.60;;;;;;5084227;28;20390;-63
2022/01/18 09:30:43;;;;;;;2.10;1.60;;;21.90;33.30;;;;;;5090002;28;20412;-63
2022/01/18 09:33:09;;;;;;;2.00;1.40;;;21.90;33.10;;;;;;5074485;28;20447;-62
2022/01/18 09:35:38;;;;;;;3.23;1.60;;;22.00;33.20;;;;;;5092367;28;20390;-62
2022/01/18 09:38:05;;;;;;;2.45;1.52;;;22.10;33.00;;;;;;5091943;28;20385;-63
2022/01/18 09:40:37;;;;;;;1.98;1.60;;;22.10;32.90;;;;;;5074422;28;20390;-62
2022/01/18 09:43:09;;;;;;;2.28;1.52;;;22.10;32.90;;;;;;5074196;28;20458;-63
2022/01/18 09:45:35;;;;;;;2.50;1.42;;;22.10;32.90;;;;;;5072287;28;20388;-62
2022/01/18 09:48:02;;;;;;;2.20;1.60;;;22.20;32.90;;;;;;5072121;28;20406;-63
2022/01/18 09:50:31;;;;;;;2.65;1.48;;;22.20;32.80;;;;;;5072226;28;20474;-62
2022/01/18 09:52:58;;;;;;;2.20;1.37;;;22.10;33.00;;;;;;5079287;28;20531;-62
2022/01/18 09:55:27;;;;;;;3.13;1.63;;;22.10;33.00;;;;;;5071892;28;20539;-63
2022/01/18 09:57:53;;;;;;;2.00;1.42;;;22.10;33.00;;;;;;5089107;28;20473;-62
2022/01/18 10:00:22;;;;;;;3.35;1.60;;;22.20;33.10;;;;;;5089277;28;20378;-63
2022/01/18 10:02:48;;;;;;;2.53;1.60;;;22.20;33.00;;;;;;5087072;28;20420;-64
2022/01/18 10:05:41;;;;;;;2.85;1.70;;;22.20;32.90;;;;;;5071479;28;20415;-63
2022/01/18 10:08:12;;;;;;;2.88;1.50;;;22.20;32.80;;;;;;5083766;28;20791;-63
2022/01/18 10:10:44;;;;;;;2.85;1.48;;;22.30;32.90;;;;;;5072664;28;20879;-63
2022/01/18 10:13:35;;;;;;;2.00;1.45;;;22.20;32.90;;;;;;5070139;28;20468;-63
2022/01/18 10:16:11;;;;;;;2.22;1.55;;;22.20;32.90;;;;;;5089347;28;20386;-74
2022/01/18 10:18:39;;;;;;;3.05;1.60;;;22.20;32.80;;;;;;5089356;28;20405;-65
2022/01/18 10:21:08;;;;;;;2.80;1.40;;;22.20;32.80;;;;;;5091045;28;20392;-66
2022/01/18 10:23:35;;;;;;;1.92;1.55;;;22.20;32.70;;;;;;5072654;28;20429;-65
2022/01/18 10:26:21;;;;;;;3.05;1.60;;;22.20;32.60;;;;;;5090888;28;20523;-62
2022/01/18 10:28:57;;;;;;;3.15;1.70;;;22.10;32.90;;;;;;5070097;28;20400;-75
2022/01/18 10:31:33;;;;;;;2.47;1.70;;;22.00;32.90;;;;;;5090774;28;20431;-62
2022/01/18 10:37:10;;;;;;;3.30;1.40;;;21.90;33.40;;;;;;5090151;28;20409;-71
2022/01/18 10:39:41;;;;;;;2.05;1.35;;;21.90;33.50;;;;;;5070744;28;20943;-74
2022/01/18 10:42:32;;;;;;;2.50;1.60;;;21.90;33.20;;;;;;5072544;28;20420;-74
2022/01/18 10:45:04;;;;;;;2.60;1.40;;;21.90;33.20;;;;;;5089026;28;20420;-74
2022/01/18 10:47:30;;;;;;;2.03;1.40;;;21.90;33.10;;;;;;5090369;28;20558;-63
2022/01/18 10:49:57;;;;;;;2.75;1.20;;;21.90;32.90;;;;;;5095604;28;20407;-68
2022/01/18 10:52:28;;;;;;;2.47;1.40;;;21.90;32.90;;;;;;5072032;28;20451;-63
2022/01/18 10:54:58;;;;;;;2.90;1.30;;;21.90;32.90;;;;;;5071683;28;20390;-74
2022/01/18 10:57:28;;;;;;;2.88;1.52;;;21.90;33.10;;;;;;5072920;28;20404;-74
2022/01/18 10:59:58;;;;;;;9.70;8.82;;;21.90;33.80;;;;;;5088091;28;20875;-72
2022/01/18 11:02:25;;;;;;;51.90;46.90;;;22.00;34.20;;;;;;5091536;28;20406;-63
2022/01/18 11:04:53;;;;;;;55.95;50.45;;;22.00;34.30;;;;;;5073651;28;20398;-66
2022/01/18 11:07:24;;;;;;;94.28;84.32;;;22.10;34.20;;;;;;5072109;28;20382;-63
2022/01/18 11:09:53;;;;;;;88.22;78.90;;;22.10;35.40;;;;;;5090973;28;20402;-64
2022/01/18 11:12:22;;;;;;;72.70;65.15;;;22.10;35.20;;;;;;5082140;28;20370;-65
2022/01/18 11:14:59;;;;;;;71.15;63.78;;;22.10;35.10;;;;;;5071580;28;20837;-68
2022/01/18 11:17:26;;;;;;;62.63;56.00;;;22.10;34.60;;;;;;5084318;28;20417;-63
2022/01/18 11:19:56;;;;;;;53.95;48.40;;;22.10;34.40;;;;;;5089949;28;20446;-69
2022/01/18 11:22:26;;;;;;;44.88;40.15;;;22.10;34.40;;;;;;5087054;28;20413;-64
2022/01/18 11:24:56;;;;;;;41.78;37.38;;;22.00;34.80;;;;;;5089821;28;20465;-62
2022/01/18 11:27:22;;;;;;;33.20;29.80;;;22.00;34.00;;;;;;5090959;28;20434;-66
2022/01/18 11:29:47;;;;;;;31.42;28.02;;;22.00;34.20;;;;;;5091232;28;20418;-62
2022/01/18 11:32:14;;;;;;;28.23;25.42;;;22.00;33.80;;;;;;5090862;28;20390;-63
2022/01/18 11:35:06;;;;;;;21.98;19.50;;;22.00;33.70;;;;;;5090943;28;20386;-66
2022/01/18 11:37:41;;;;;;;22.02;19.73;;;22.00;33.50;;;;;;5090123;28;20405;-63
2022/01/18 11:40:15;;;;;;;20.53;18.43;;;22.00;33.50;;;;;;5091068;28;20530;-73
2022/01/18 11:42:41;;;;;;;17.83;15.73;;;22.00;33.40;;;;;;5090919;28;20402;-64
2022/01/18 11:45:25;;;;;;;17.30;15.60;;;22.00;33.30;;;;;;5091457;28;20408;-63
2022/01/18 11:48:05;;;;;;;14.60;12.55;;;22.00;33.30;;;;;;5089782;28;20441;-62
2022/01/18 11:50:41;;;;;;;12.43;11.13;;;22.00;33.20;;;;;;5089938;28;20390;-67
2022/01/18 11:53:25;;;;;;;12.27;11.07;;;21.90;33.10;;;;;;5089467;28;20401;-62
2022/01/18 11:55:56;;;;;;;11.40;10.10;;;21.80;33.40;;;;;;5099593;28;20402;-64
2022/01/18 11:58:22;;;;;;;10.32;9.00;;;21.70;34.30;;;;;;5075307;28;20413;-64
2022/01/18 12:01:00;;;;;;;9.48;8.13;;;21.80;35.50;;;;;;5076206;28;20392;-62
2022/01/18 12:03:29;;;;;;;7.83;7.00;;;21.80;34.70;;;;;;5093819;28;20459;-63
2022/01/18 12:05:59;;;;;;;7.38;6.55;;;21.70;34.30;;;;;;5094821;28;20378;-63
2022/01/18 12:08:30;;;;;;;8.80;6.38;;;21.70;34.10;;;;;;5094637;28;20382;-62
2022/01/18 12:10:56;;;;;;;8.13;6.30;;;21.60;34.40;;;;;;5094660;28;20486;-67
2022/01/18 12:13:43;;;;;;;6.40;5.47;;;21.60;34.90;;;;;;5076287;28;20390;-69
2022/01/18 12:16:21;;;;;;;6.97;5.10;;;21.60;35.60;;;;;;5094129;28;20550;-67
2022/01/18 12:18:59;;;;;;;6.65;5.22;;;21.70;36.30;;;;;;5086485;28;20932;-75
2022/01/18 12:21:30;;;;;;;6.57;5.53;;;21.60;34.50;;;;;;5092711;28;20386;-74
2022/01/18 12:24:12;;;;;;;5.63;4.70;;;21.50;34.40;;;;;;5092802;28;20418;-75
2022/01/18 12:26:41;;;;;;;5.50;4.40;;;21.50;34.50;;;;;;5086833;28;20433;-74
2022/01/18 12:34:41;;;;;;;5.70;4.30;;;21.50;34.70;;;;;;5094192;28;20958;-75
2022/01/18 12:37:23;;;;;;;4.97;3.80;;;21.50;34.60;;;;;;5092739;28;20461;-70
2022/01/18 12:45:26;;;;;;;4.88;3.60;;;21.40;34.70;;;;;;5091591;28;20378;-73
2022/01/18 12:47:58;;;;;;;4.03;3.25;;;21.40;34.70;;;;;;5089803;28;20497;-74
2022/01/18 12:50:44;;;;;;;4.65;3.15;;;21.40;34.50;;;;;;5092449;28;20960;-74
2022/01/18 12:53:27;;;;;;;4.07;2.80;;;21.30;34.20;;;;;;5072790;28;20409;-74
2022/01/18 12:56:05;;;;;;;3.63;2.53;;;21.30;34.20;;;;;;5091041;28;20394;-70
2022/01/18 12:58:38;;;;;;;3.83;2.78;;;21.20;34.80;;;;;;5090176;28;20724;-73
2022/01/18 13:01:13;;;;;;;3.85;2.80;;;21.30;34.50;;;;;;5091777;28;20397;-67
2022/01/18 13:03:45;;;;;;;3.30;2.55;;;21.30;34.40;;;;;;5072542;28;20410;-73
2022/01/18 13:06:18;;;;;;;3.80;2.70;;;21.30;34.20;;;;;;5073315;28;20397;-73
2022/01/18 13:08:57;;;;;;;3.60;2.50;;;21.20;34.10;;;;;;5074279;28;20497;-70
2022/01/18 13:11:31;;;;;;;3.10;2.08;;;21.20;34.00;;;;;;5090907;28;20397;-74
2022/01/18 13:14:11;;;;;;;3.95;2.10;;;21.20;34.10;;;;;;5088993;28;20382;-66
2022/01/18 13:25:13;;;;;;;2.78;2.03;;;21.10;33.90;;;;;;5090957;28;20385;-64
2022/01/18 13:27:48;;;;;;;3.17;1.80;;;21.10;34.00;;;;;;5069292;28;20386;-71
2022/01/18 13:30:18;;;;;;;2.80;1.93;;;21.10;34.10;;;;;;5097128;28;20450;-73
2022/01/18 13:32:46;;;;;;;3.25;1.90;;;21.10;34.20;;;;;;5091599;28;20421;-72
2022/01/18 13:35:13;;;;;;;2.78;1.90;;;21.10;34.10;;;;;;5070382;28;20394;-65
2022/01/18 13:37:40;;;;;;;2.22;1.80;;;21.10;34.00;;;;;;5090244;28;20401;-65
2022/01/18 13:40:14;;;;;;;2.08;1.40;;;21.10;33.90;;;;;;5089260;28;20385;-69
2022/01/18 13:42:56;;;;;;;2.42;1.77;;;21.00;33.70;;;;;;5073193;28;20459;-74
2022/01/18 13:45:26;;;;;;;2.20;1.60;;;21.00;34.10;;;;;;5091583;28;20489;-74
2022/01/18 13:48:00;;;;;;;2.78;1.60;;;21.00;34.00;;;;;;5065138;28;20410;-73
2022/01/18 13:50:41;;;;;;;2.20;1.50;;;21.00;34.00;;;;;;5051004;28;20957;-74
2022/01/18 13:53:22;;;;;;;2.30;1.48;;;21.00;33.90;;;;;;5032210;28;20391;-74
2022/01/18 13:56:07;;;;;;;2.35;1.42;;;20.90;33.70;;;;;;5034864;28;20389;-66
2022/01/18 13:58:36;;;;;;;2.35;1.42;;;20.90;33.60;;;;;;5032462;28;20399;-66
2022/01/18 14:01:17;;;;;;;1.95;1.38;;;20.90;34.00;;;;;;5032429;28;20437;-68
2022/01/18 14:03:54;;;;;;;2.47;1.40;;;21.00;34.10;;;;;;5030960;28;20824;-63
2022/01/18 14:06:31;;;;;;;2.78;1.48;;;21.00;33.90;;;;;;5031025;28;20893;-64
2022/01/18 14:08:57;;;;;;;2.55;1.38;;;21.10;33.90;;;;;;5030989;28;20414;-73
2022/01/18 14:11:33;;;;;;;2.33;1.40;;;21.10;33.70;;;;;;5030705;28;20384;-62
2022/01/18 14:14:01;;;;;;;2.75;1.60;;;21.10;33.60;;;;;;5031940;28;20893;-66
2022/01/18 14:16:29;;;;;;;1.97;1.30;;;21.20;33.50;;;;;;5031349;28;20392;-64
2022/01/18 14:18:55;;;;;;;2.58;1.40;;;21.20;33.60;;;;;;5032218;28;20457;-64
2022/01/18 14:21:28;;;;;;;3.50;1.50;;;21.20;33.60;;;;;;5030718;28;20391;-65
2022/01/18 14:24:14;;;;;;;3.65;1.40;;;21.30;33.60;;;;;;5032007;28;20889;-63